Tuxedo, New York
Current Conditions -  °F | °C
As of 5:53 PM on Thursday 18 Dec 2014 (Local Time) from KFWN Reporting Station
Overcast Overcast  
Wind Chill: 36°   Ceiling: 2600
Heat Index: 36°   Visibility: 10mi
Dew Point: 26°   Wind: 3mph
Humidity: 67%   Direction: 330°NNW
Pressure: 29.97"   Gusts: NA
Location:  41.1969°N, 74.224°W
Report Text: KFWN 182253Z AUTO 33003KT 10SM OVC026 02/M03 A2997 RMK AO2 SLP153 T00221033
Loading
Personal Weather Stations






























Interactive Weather Map New forecast layout! Learn more

10-Day Weather Forecast

Advertisements
Track Severe Weather on mobile